createdAt,value
2022-11-20T00:00:15.547Z,38.2
2022-11-20T00:05:15.636Z,38.0
2022-11-20T00:10:15.545Z,37.9
2022-11-20T00:15:15.559Z,37.8
2022-11-20T00:20:15.595Z,37.8
2022-11-20T00:25:15.713Z,37.7
2022-11-20T00:30:15.546Z,37.6
2022-11-20T00:35:15.577Z,37.5
2022-11-20T00:40:15.639Z,37.3
2022-11-20T00:45:15.791Z,37.3
2022-11-20T00:50:15.617Z,37.1
2022-11-20T00:55:15.734Z,37.0
2022-11-20T01:00:15.694Z,36.9
2022-11-20T01:05:15.695Z,36.8
2022-11-20T01:10:15.948Z,36.7
2022-11-20T01:15:15.722Z,36.6
2022-11-20T01:20:16.010Z,36.4
2022-11-20T01:25:15.941Z,36.3
2022-11-20T01:30:15.856Z,36.2
2022-11-20T01:35:15.753Z,36.1
2022-11-20T01:40:15.789Z,35.9
2022-11-20T01:45:15.805Z,35.8
2022-11-20T01:50:15.724Z,35.6
2022-11-20T01:55:15.686Z,35.5
2022-11-20T02:00:15.845Z,35.5
2022-11-20T02:05:15.949Z,35.4
2022-11-20T02:10:16.828Z,35.3
2022-11-20T02:15:16.785Z,35.2
2022-11-20T02:20:16.805Z,35.0
2022-11-20T02:25:16.843Z,34.9
2022-11-20T02:30:17.038Z,34.8
2022-11-20T02:35:16.990Z,34.8
2022-11-20T02:40:16.904Z,34.6
2022-11-20T02:45:16.856Z,34.5
2022-11-20T02:50:16.919Z,34.3
2022-11-20T02:55:17.060Z,34.2
2022-11-20T03:00:17.006Z,34.2
2022-11-20T03:05:17.303Z,34.0
2022-11-20T03:10:16.920Z,33.9
2022-11-20T03:15:17.103Z,33.8
2022-11-20T03:20:17.041Z,33.6
2022-11-20T03:25:17.029Z,33.5
2022-11-20T03:30:17.031Z,33.4
2022-11-20T03:35:16.965Z,33.4
2022-11-20T03:40:17.063Z,33.3
2022-11-20T03:45:17.093Z,33.2
2022-11-20T03:50:17.091Z,33.1
2022-11-20T03:55:17.003Z,33.0
2022-11-20T04:00:17.141Z,33.0
2022-11-20T04:05:17.144Z,33.0
2022-11-20T04:10:17.135Z,32.9
2022-11-20T04:15:17.245Z,32.8
2022-11-20T04:20:17.163Z,32.8
2022-11-20T04:25:17.170Z,32.8
2022-11-20T04:30:17.171Z,32.7
2022-11-20T04:35:17.166Z,32.7
2022-11-20T04:40:17.298Z,32.6
2022-11-20T04:45:17.246Z,32.5
2022-11-20T04:50:17.214Z,32.5
2022-11-20T04:55:17.315Z,32.4
2022-11-20T05:00:16.235Z,32.4
2022-11-20T05:05:16.223Z,32.2
2022-11-20T05:10:16.250Z,32.1
2022-11-20T05:15:16.291Z,32.2
2022-11-20T05:20:16.270Z,32.1
2022-11-20T05:25:16.295Z,32.1
2022-11-20T05:30:16.343Z,32.0
2022-11-20T05:35:16.452Z,32.0
2022-11-20T05:40:16.292Z,31.8
2022-11-20T05:45:16.314Z,31.6
2022-11-20T05:50:16.295Z,31.5
2022-11-20T05:55:16.291Z,31.5
2022-11-20T06:00:16.415Z,31.5
2022-11-20T06:05:16.555Z,31.4
2022-11-20T06:10:17.361Z,31.4
2022-11-20T06:15:17.518Z,31.4
2022-11-20T06:20:15.448Z,31.3
2022-11-20T06:25:15.532Z,31.2
2022-11-20T06:30:15.467Z,31.1
2022-11-20T06:35:15.567Z,31.0
2022-11-20T06:40:15.519Z,31.0
2022-11-20T06:45:15.498Z,30.9
2022-11-20T06:50:15.500Z,30.8
2022-11-20T06:55:15.585Z,30.7
2022-11-20T07:00:15.442Z,30.6
2022-11-20T07:05:15.537Z,30.6
2022-11-20T07:10:15.608Z,30.6
2022-11-20T07:15:15.520Z,30.6
2022-11-20T07:20:15.562Z,30.5
2022-11-20T07:25:15.484Z,30.4
2022-11-20T07:30:15.574Z,30.4
2022-11-20T07:35:15.551Z,30.4
2022-11-20T07:40:15.617Z,30.4
2022-11-20T07:45:15.611Z,30.3
2022-11-20T07:50:15.592Z,30.3
2022-11-20T07:55:18.815Z,30.4
2022-11-20T08:00:15.634Z,30.4
2022-11-20T08:05:15.703Z,30.4
2022-11-20T08:10:15.818Z,30.5
2022-11-20T08:15:15.783Z,30.5
2022-11-20T08:20:15.641Z,30.5
2022-11-20T08:25:15.668Z,30.6
2022-11-20T08:30:15.738Z,30.8
2022-11-20T08:35:15.759Z,31.0
2022-11-20T08:40:19.479Z,31.1
2022-11-20T08:45:15.752Z,31.4
2022-11-20T08:50:15.790Z,31.7
2022-11-20T08:55:15.827Z,32.0
2022-11-20T09:00:15.696Z,32.1
2022-11-20T09:05:15.732Z,32.2
2022-11-20T09:10:24.046Z,32.3
2022-11-20T09:15:15.785Z,32.3
2022-11-20T09:20:15.968Z,32.3
2022-11-20T09:25:15.736Z,32.4
2022-11-20T09:30:15.840Z,32.5
2022-11-20T09:35:15.893Z,32.7
2022-11-20T09:40:15.885Z,32.8
2022-11-20T09:45:15.817Z,33.0
2022-11-20T09:50:16.014Z,33.1
2022-11-20T09:55:15.829Z,33.1
2022-11-20T10:00:15.832Z,33.2
2022-11-20T10:05:15.907Z,33.3
2022-11-20T10:10:15.963Z,33.4
2022-11-20T10:15:15.958Z,33.5
2022-11-20T10:20:15.966Z,33.6
2022-11-20T10:25:16.109Z,33.6
2022-11-20T10:30:15.984Z,33.7
2022-11-20T10:35:15.988Z,33.7
2022-11-20T10:40:16.106Z,33.8
2022-11-20T10:45:16.197Z,33.8
2022-11-20T10:50:21.883Z,33.8
2022-11-20T10:55:16.010Z,33.7
2022-11-20T11:00:16.072Z,33.8
2022-11-20T11:05:16.095Z,33.9
2022-11-20T11:10:16.035Z,33.9
2022-11-20T11:15:16.095Z,34.0
2022-11-20T11:20:16.041Z,34.1
2022-11-20T11:25:16.064Z,34.2
2022-11-20T11:30:15.990Z,34.3
2022-11-20T11:35:16.070Z,34.3
2022-11-20T11:40:24.781Z,34.4
2022-11-20T11:45:16.108Z,34.4
2022-11-20T11:50:16.388Z,34.3
2022-11-20T11:55:16.060Z,34.2
2022-11-20T12:00:16.130Z,34.0
2022-11-20T12:05:16.153Z,33.8
2022-11-20T12:10:16.166Z,33.5
2022-11-20T12:15:16.227Z,33.4
2022-11-20T12:20:16.240Z,33.3
2022-11-20T12:25:16.197Z,33.2
2022-11-20T12:30:16.360Z,32.9
2022-11-20T12:35:16.276Z,32.7
2022-11-20T12:40:16.253Z,32.6
2022-11-20T12:45:16.236Z,32.6
2022-11-20T12:50:16.303Z,32.9
2022-11-20T12:55:16.372Z,33.3
2022-11-20T13:00:16.400Z,33.6
2022-11-20T13:05:16.281Z,34.1
2022-11-20T13:10:16.385Z,34.4
2022-11-20T13:15:16.407Z,34.7
2022-11-20T13:20:16.363Z,34.9
2022-11-20T13:25:16.716Z,35.3
2022-11-20T13:30:16.368Z,35.3
2022-11-20T13:35:16.482Z,35.5
2022-11-20T13:40:16.363Z,35.7
2022-11-20T13:45:16.531Z,35.6
2022-11-20T13:50:16.554Z,35.7
2022-11-20T13:55:19.554Z,35.6
2022-11-20T14:00:16.485Z,35.7
2022-11-20T14:05:16.440Z,35.7
2022-11-20T14:10:16.714Z,35.9
2022-11-20T14:15:16.449Z,35.9
2022-11-20T14:20:16.665Z,36.1
2022-11-20T14:25:16.522Z,36.4
2022-11-20T14:30:16.494Z,36.1
2022-11-20T14:35:16.555Z,36.1
2022-11-20T14:40:16.581Z,36.4
2022-11-20T14:45:16.554Z,36.8
2022-11-20T14:50:16.580Z,36.8
2022-11-20T14:55:16.548Z,36.9
2022-11-20T15:00:16.714Z,36.8
2022-11-20T15:05:16.615Z,37.0
2022-11-20T15:10:16.610Z,37.2
2022-11-20T15:15:16.655Z,37.3
2022-11-20T15:20:16.661Z,37.4
2022-11-20T15:25:16.619Z,37.4
2022-11-20T15:30:16.687Z,37.3
2022-11-20T15:35:16.661Z,37.4
2022-11-20T15:40:16.706Z,37.6
2022-11-20T15:45:16.622Z,37.7
2022-11-20T15:50:16.724Z,37.9
2022-11-20T15:55:16.661Z,37.9
2022-11-20T16:00:22.176Z,37.8
2022-11-20T16:05:16.813Z,38.0
2022-11-20T16:10:19.971Z,38.0
2022-11-20T16:15:16.786Z,37.8
2022-11-20T16:20:16.726Z,37.9
2022-11-20T16:25:16.755Z,37.9
2022-11-20T16:30:16.790Z,37.8
2022-11-20T16:35:16.769Z,37.7
2022-11-20T16:40:16.781Z,37.7
2022-11-20T16:45:21.505Z,37.8
2022-11-20T16:50:16.820Z,37.7
2022-11-20T16:55:16.944Z,37.8
2022-11-20T17:00:16.990Z,37.7
2022-11-20T17:05:16.877Z,37.8
2022-11-20T17:10:16.911Z,37.9
2022-11-20T17:15:16.950Z,38.2
2022-11-20T17:20:16.898Z,38.0
2022-11-20T17:25:16.942Z,37.8
2022-11-20T17:30:16.903Z,37.7
2022-11-20T17:35:16.940Z,37.5
2022-11-20T17:40:16.903Z,37.4
2022-11-20T17:45:16.929Z,37.2
2022-11-20T17:50:16.945Z,37.2
2022-11-20T17:55:16.875Z,37.2
2022-11-20T18:00:17.135Z,37.2
2022-11-20T18:05:17.042Z,37.1
2022-11-20T18:10:16.947Z,37.2
2022-11-20T18:15:16.969Z,37.2
2022-11-20T18:20:36.690Z,37.2
2022-11-20T18:25:17.049Z,37.3
2022-11-20T18:30:17.136Z,37.1
2022-11-20T18:35:17.025Z,37.1
2022-11-20T18:40:17.115Z,37.1
2022-11-20T18:45:17.078Z,37.2
2022-11-20T18:50:17.085Z,37.3
2022-11-20T18:55:17.062Z,37.3
2022-11-20T19:00:17.176Z,37.1
2022-11-20T19:05:17.211Z,37.1
2022-11-20T19:10:17.142Z,37.1
2022-11-20T19:15:17.342Z,37.0
2022-11-20T19:20:17.159Z,37.0
2022-11-20T19:25:17.243Z,37.1
2022-11-20T19:30:17.147Z,37.0
2022-11-20T19:35:17.374Z,37.0
2022-11-20T19:40:17.280Z,37.0
2022-11-20T19:45:17.265Z,37.1
2022-11-20T19:50:17.279Z,36.9
2022-11-20T19:55:17.230Z,36.6
2022-11-20T20:00:23.082Z,36.6
2022-11-20T20:05:17.397Z,36.4
2022-11-20T20:10:17.259Z,36.4
2022-11-20T20:15:17.401Z,36.2
2022-11-20T20:20:17.230Z,36.0
2022-11-20T20:25:17.280Z,35.8
2022-11-20T20:30:17.344Z,35.7
2022-11-20T20:35:17.344Z,35.7
2022-11-20T20:40:17.648Z,35.5
2022-11-20T20:45:17.403Z,35.3
2022-11-20T20:50:17.664Z,35.1
2022-11-20T20:55:17.458Z,34.9
2022-11-20T21:00:17.389Z,34.7
2022-11-20T21:05:15.390Z,34.6
2022-11-20T21:10:18.740Z,34.4
2022-11-20T21:15:15.373Z,34.2
2022-11-20T21:20:15.585Z,34.0
2022-11-20T21:25:15.606Z,33.9
2022-11-20T21:30:15.402Z,33.7
2022-11-20T21:35:15.432Z,33.7
2022-11-20T21:40:15.482Z,33.6
2022-11-20T21:45:15.435Z,33.6
2022-11-20T21:50:15.568Z,33.7
2022-11-20T21:55:15.405Z,33.5
2022-11-20T22:00:15.457Z,33.4
2022-11-20T22:05:15.565Z,33.3
2022-11-20T22:10:18.523Z,33.3
2022-11-20T22:15:27.961Z,33.3
2022-11-20T22:20:16.728Z,33.2
2022-11-20T22:25:16.547Z,33.0
2022-11-20T22:30:16.578Z,33.0
2022-11-20T22:35:16.594Z,32.8
2022-11-20T22:40:16.842Z,32.8
2022-11-20T22:45:16.617Z,32.7
2022-11-20T22:50:16.564Z,32.8
2022-11-20T22:55:16.703Z,32.7
2022-11-20T23:00:16.680Z,32.5
2022-11-20T23:05:16.697Z,32.4
2022-11-20T23:10:16.645Z,32.3
2022-11-20T23:15:16.720Z,32.2
2022-11-20T23:20:16.837Z,32.2
2022-11-20T23:25:16.869Z,32.0
2022-11-20T23:30:16.687Z,31.9
2022-11-20T23:35:16.755Z,31.7
2022-11-20T23:40:16.719Z,31.9
2022-11-20T23:45:16.768Z,31.9
2022-11-20T23:50:16.775Z,31.7
2022-11-20T23:55:16.702Z,31.5
